createdAt,value
2018-03-16T00:04:49.006Z,5.6
2018-03-16T00:15:02.821Z,5.3
2018-03-16T00:25:17.714Z,5.2
2018-03-16T00:35:31.929Z,5.1
2018-03-16T00:45:46.459Z,5
2018-03-16T00:56:01.879Z,5
2018-03-16T01:06:15.887Z,5
2018-03-16T01:16:30.839Z,5
2018-03-16T01:26:46.490Z,4.8
2018-03-16T01:37:00.677Z,4.9
2018-03-16T01:47:15.385Z,4.9
2018-03-16T01:57:30.711Z,4.8
2018-03-16T02:07:45.254Z,4.9
2018-03-16T02:17:59.404Z,4.8
2018-03-16T02:28:13.760Z,4.7
2018-03-16T02:38:27.856Z,4.8
2018-03-16T02:48:41.758Z,4.6
2018-03-16T02:58:57.328Z,4.7
2018-03-16T03:09:11.840Z,4.7
2018-03-16T03:19:26.522Z,4.7
2018-03-16T03:29:42.025Z,4.7
2018-03-16T03:39:56.310Z,4.6
2018-03-16T03:50:11.046Z,4.7
2018-03-16T04:00:26.170Z,4.5
2018-03-16T04:10:40.184Z,4.5
2018-03-16T04:20:54.535Z,4.6
2018-03-16T04:31:10.192Z,4.5
2018-03-16T04:41:23.891Z,4.5
2018-03-16T04:51:38.629Z,4.3
2018-03-16T05:01:53.572Z,4.4
2018-03-16T05:12:07.320Z,4.3
2018-03-16T05:22:21.608Z,4.3
2018-03-16T05:32:36.857Z,4.3
2018-03-16T05:42:50.982Z,4.3
2018-03-16T05:53:06.211Z,4.3
2018-03-16T06:03:20.884Z,4.3
2018-03-16T06:13:36.045Z,4.2
2018-03-16T06:23:50.898Z,4.2
2018-03-16T06:34:06.067Z,4.2
2018-03-16T06:44:21.725Z,4.2
2018-03-16T06:54:36.829Z,4.1
2018-03-16T07:04:51.783Z,4
2018-03-16T07:15:07.026Z,3.8
2018-03-16T07:25:22.445Z,3.9
2018-03-16T07:35:36.842Z,4
2018-03-16T07:45:52.496Z,4
2018-03-16T07:56:06.478Z,4
2018-03-16T08:06:21.890Z,4
2018-03-16T08:16:35.992Z,4.1
2018-03-16T08:26:51.276Z,3.9
2018-03-16T08:37:05.409Z,3.9
2018-03-16T08:47:20.585Z,4
2018-03-16T08:57:34.531Z,4
2018-03-16T09:07:49.178Z,3.9
2018-03-16T09:18:04.959Z,3.9
2018-03-16T09:28:19.892Z,4
2018-03-16T09:38:33.744Z,3.9
2018-03-16T09:48:47.930Z,3.8
2018-03-16T09:59:01.887Z,3.7
2018-03-16T10:09:16.894Z,3.4
2018-03-16T10:19:32.502Z,3.3
2018-03-16T10:29:46.416Z,3.1
2018-03-16T10:40:02.010Z,3.3
2018-03-16T10:50:15.901Z,3.2
2018-03-16T11:00:31.161Z,3.3
2018-03-16T11:10:44.987Z,3.2
2018-03-16T11:20:59.675Z,3.2
2018-03-16T11:31:14.718Z,3.2
2018-03-16T11:41:30.116Z,3.1
2018-03-16T11:51:45.283Z,3.1
2018-03-16T12:02:00.862Z,3.2
2018-03-16T12:12:16.303Z,3.1
2018-03-16T12:22:31.768Z,3
2018-03-16T12:32:45.461Z,3
2018-03-16T12:42:59.170Z,2.9
2018-03-16T12:53:13.675Z,2.7
2018-03-16T13:03:29.127Z,2.6
2018-03-16T13:13:43.931Z,2.7
2018-03-16T13:23:57.679Z,2.6
2018-03-16T13:34:12.119Z,2.7
2018-03-16T13:44:26.505Z,2.5
2018-03-16T13:54:40.677Z,2.5
2018-03-16T14:04:54.367Z,2.6
2018-03-16T14:15:08.379Z,2.4
2018-03-16T14:25:22.647Z,2.3
2018-03-16T14:35:37.401Z,2.2
2018-03-16T14:45:52.918Z,2.1
2018-03-16T14:56:06.902Z,2
2018-03-16T15:06:21.497Z,1.7
2018-03-16T15:16:36.256Z,1.6
2018-03-16T15:26:50.392Z,1.8
2018-03-16T15:37:05.532Z,1.8
2018-03-16T15:47:20.852Z,1.8
2018-03-16T15:57:35.417Z,1.7
2018-03-16T16:07:50.717Z,1.7
2018-03-16T16:18:05.273Z,1.5
2018-03-16T16:28:20.658Z,1.6
2018-03-16T16:38:34.597Z,1.5
2018-03-16T16:48:49.255Z,1.5
2018-03-16T16:59:03.294Z,1.4
2018-03-16T17:09:17.859Z,1.4
2018-03-16T17:19:31.576Z,1.3
2018-03-16T17:29:45.602Z,1.1
2018-03-16T17:39:59.238Z,1
2018-03-16T17:50:14.717Z,0.8
2018-03-16T18:00:29.659Z,0.6
2018-03-16T18:10:44.218Z,0.7
2018-03-16T18:20:58.291Z,0.7
2018-03-16T18:31:12.404Z,0.6
2018-03-16T18:41:27.134Z,0.6
2018-03-16T18:51:41.831Z,0.5
2018-03-16T19:01:57.246Z,0.3
2018-03-16T19:12:12.219Z,0.5
2018-03-16T19:22:27.746Z,0.6
2018-03-16T19:32:41.993Z,0.5
2018-03-16T19:42:56.282Z,0.5
2018-03-16T19:53:10.755Z,0.4
2018-03-16T20:03:25.565Z,0.3
2018-03-16T20:13:39.867Z,0.3
2018-03-16T20:23:54.236Z,0.4
2018-03-16T20:34:08.693Z,0.3
2018-03-16T20:44:23.889Z,0.2
2018-03-16T20:54:38.299Z,0.2
2018-03-16T21:04:53.280Z,0.2
2018-03-16T21:15:07.431Z,0.2
2018-03-16T21:25:22.898Z,0.2
2018-03-16T21:35:37.180Z,0.2
2018-03-16T21:45:51.854Z,0.2
2018-03-16T21:56:05.989Z,0
2018-03-16T22:06:20.771Z,0
2018-03-16T22:16:36.119Z,-0.1
2018-03-16T22:26:50.330Z,-0.2
2018-03-16T22:37:04.690Z,-0.2
2018-03-16T22:47:19.951Z,-0.3
2018-03-16T22:57:35.338Z,-0.3
2018-03-16T23:07:50.274Z,-0.4
2018-03-16T23:18:04.464Z,-0.5
2018-03-16T23:28:18.512Z,-0.5
2018-03-16T23:38:33.528Z,-0.5
2018-03-16T23:48:48.880Z,-0.5
2018-03-16T23:59:03.527Z,-0.5
